Indiana Beach, Indiana
Current Conditions -  °F | °C
As of 3:15 PM on Saturday 25 Oct 2014 (Local Time) from KMCX Reporting Station
Clear Clear  
Wind Chill: 71°   Ceiling: Unl
Heat Index: 71°   Visibility: 10mi
Dew Point: 55°   Wind: 9mph
Humidity: 57%   Direction: 290°WNW
Pressure: 29.93"   Gusts: 17mph
Location:  40.8005°N, 86.6926°W
Report Text: KMCX 251915Z AUTO 29008G15KT 10SM CLR 21/13 A2993 RMK AO2 T02140126
Loading
Personal Weather Stations






























Interactive Weather Map
Tropical Storm Tracking
New forecast layout! Learn more

10-Day Weather Forecast

Advertisements
Track Severe Weather on mobile